sensor_id;sensor_type;location;lat;lon;timestamp;pressure;altitude;pressure_sealevel;temperature;humidity
80911;BME280;70359;51.420;7.032;2024-03-07T00:00:54;1010.003;;;7.52;60.66016
80911;BME280;70359;51.420;7.032;2024-03-07T00:03:19;1010.006;;;7.48;60.37305
80911;BME280;70359;51.420;7.032;2024-03-07T00:05:44;1009.97;;;7.45;60.31348
80911;BME280;70359;51.420;7.032;2024-03-07T00:08:09;1009.975;;;7.45;60.04199
80911;BME280;70359;51.420;7.032;2024-03-07T00:10:34;1009.979;;;7.31;59.74316
80911;BME280;70359;51.420;7.032;2024-03-07T00:12:59;1009.964;;;7.15;60.2832
80911;BME280;70359;51.420;7.032;2024-03-07T00:15:24;1009.999;;;7.03;60.36719
80911;BME280;70359;51.420;7.032;2024-03-07T00:17:49;1010.015;;;6.87;60.64844
80911;BME280;70359;51.420;7.032;2024-03-07T00:20:15;1010.028;;;6.88;60.32324
80911;BME280;70359;51.420;7.032;2024-03-07T00:22:39;1010.075;;;6.83;61.49512
80911;BME280;70359;51.420;7.032;2024-03-07T00:25:05;1010.067;;;6.74;60.91016
80911;BME280;70359;51.420;7.032;2024-03-07T00:27:29;1010.075;;;6.72;61.05371
80911;BME280;70359;51.420;7.032;2024-03-07T00:29:54;1010.085;;;6.69;61.34082
80911;BME280;70359;51.420;7.032;2024-03-07T00:32:19;1010.021;;;6.55;61.33203
80911;BME280;70359;51.420;7.032;2024-03-07T00:34:44;1010.023;;;6.56;61.80371
80911;BME280;70359;51.420;7.032;2024-03-07T00:37:10;1010.043;;;6.54;61.87891
80911;BME280;70359;51.420;7.032;2024-03-07T00:39:34;1010.03;;;6.53;61.66504
80911;BME280;70359;51.420;7.032;2024-03-07T00:41:59;1010.122;;;6.47;62.72168
80911;BME280;70359;51.420;7.032;2024-03-07T00:44:24;1010.1;;;6.52;62.13379
80911;BME280;70359;51.420;7.032;2024-03-07T00:46:49;1010.102;;;6.48;61.84863
80911;BME280;70359;51.420;7.032;2024-03-07T00:49:14;1010.123;;;6.47;62.31738
80911;BME280;70359;51.420;7.032;2024-03-07T00:51:39;1010.097;;;6.45;61.86719
80911;BME280;70359;51.420;7.032;2024-03-07T00:54:04;1010.092;;;6.49;61.83887
80911;BME280;70359;51.420;7.032;2024-03-07T00:56:29;1010.096;;;6.5;62.17578
80911;BME280;70359;51.420;7.032;2024-03-07T00:58:54;1010.061;;;6.48;62.14063
80911;BME280;70359;51.420;7.032;2024-03-07T01:01:19;1010.056;;;6.46;62.30469
80911;BME280;70359;51.420;7.032;2024-03-07T01:03:45;1010.107;;;6.48;62.31836
80911;BME280;70359;51.420;7.032;2024-03-07T01:06:09;1010.05;;;6.53;62.125
80911;BME280;70359;51.420;7.032;2024-03-07T01:08:35;1010.071;;;6.53;61.57617
80911;BME280;70359;51.420;7.032;2024-03-07T01:11:00;1010.099;;;6.45;62.08105
80911;BME280;70359;51.420;7.032;2024-03-07T01:13:24;1010.031;;;6.43;61.89746
80911;BME280;70359;51.420;7.032;2024-03-07T01:15:50;1009.989;;;6.44;62.04395
80911;BME280;70359;51.420;7.032;2024-03-07T01:18:15;1010.03;;;6.43;62.80469
80911;BME280;70359;51.420;7.032;2024-03-07T01:20:40;1010.012;;;6.49;62.66699
80911;BME280;70359;51.420;7.032;2024-03-07T01:23:05;1009.987;;;6.51;64.01465
80911;BME280;70359;51.420;7.032;2024-03-07T01:25:30;1010.029;;;6.63;63.61816
80911;BME280;70359;51.420;7.032;2024-03-07T01:27:55;1010.057;;;6.75;64.11719
80911;BME280;70359;51.420;7.032;2024-03-07T01:30:20;1010.01;;;6.78;63.71777
80911;BME280;70359;51.420;7.032;2024-03-07T01:32:45;1009.983;;;6.93;63.50488
80911;BME280;70359;51.420;7.032;2024-03-07T01:35:10;1009.983;;;7;63.11133
80911;BME280;70359;51.420;7.032;2024-03-07T01:37:35;1009.991;;;7.07;63.71582
80911;BME280;70359;51.420;7.032;2024-03-07T01:40:00;1009.968;;;7.11;62.68945
80911;BME280;70359;51.420;7.032;2024-03-07T01:42:25;1009.942;;;7.12;62.91504
80911;BME280;70359;51.420;7.032;2024-03-07T01:44:50;1009.914;;;7.14;62.6709
80911;BME280;70359;51.420;7.032;2024-03-07T01:47:15;1009.861;;;7.16;62.65234
80911;BME280;70359;51.420;7.032;2024-03-07T01:49:40;1009.828;;;7.22;62.37988
80911;BME280;70359;51.420;7.032;2024-03-07T01:52:05;1009.859;;;7.25;62.90137
80911;BME280;70359;51.420;7.032;2024-03-07T01:54:30;1009.865;;;7.32;62.69824
80911;BME280;70359;51.420;7.032;2024-03-07T01:56:55;1009.853;;;7.41;62.47461
80911;BME280;70359;51.420;7.032;2024-03-07T01:59:20;1009.816;;;7.26;63.75488
80911;BME280;70359;51.420;7.032;2024-03-07T02:01:45;1009.824;;;7.32;63.73047
80911;BME280;70359;51.420;7.032;2024-03-07T02:04:10;1009.813;;;7.4;63.42676
80911;BME280;70359;51.420;7.032;2024-03-07T02:06:35;1009.791;;;7.44;63.18652
80911;BME280;70359;51.420;7.032;2024-03-07T02:09:00;1009.698;;;7.56;62.51855
80911;BME280;70359;51.420;7.032;2024-03-07T02:11:25;1009.697;;;7.57;62.49707
80911;BME280;70359;51.420;7.032;2024-03-07T02:13:50;1009.704;;;7.53;63.46875
80911;BME280;70359;51.420;7.032;2024-03-07T02:16:15;1009.705;;;7.6;62.77246
80911;BME280;70359;51.420;7.032;2024-03-07T02:18:40;1009.697;;;7.54;62.97656
80911;BME280;70359;51.420;7.032;2024-03-07T02:21:09;1009.671;;;7.52;63.13086
80911;BME280;70359;51.420;7.032;2024-03-07T02:23:30;1009.693;;;7.42;63.25098
80911;BME280;70359;51.420;7.032;2024-03-07T02:25:55;1009.676;;;7.42;63.31738
80911;BME280;70359;51.420;7.032;2024-03-07T02:28:20;1009.665;;;7.31;63.68262
80911;BME280;70359;51.420;7.032;2024-03-07T02:30:45;1009.698;;;7.21;64.14063
80911;BME280;70359;51.420;7.032;2024-03-07T02:33:10;1009.729;;;7.1;63.89941
80911;BME280;70359;51.420;7.032;2024-03-07T02:35:35;1009.665;;;7.03;64.67383
80911;BME280;70359;51.420;7.032;2024-03-07T02:38:00;1009.656;;;7.03;64.97656
80911;BME280;70359;51.420;7.032;2024-03-07T02:40:25;1009.618;;;7.18;64.41602
80911;BME280;70359;51.420;7.032;2024-03-07T02:42:50;1009.615;;;7.17;63.8418
80911;BME280;70359;51.420;7.032;2024-03-07T02:45:15;1009.635;;;7.16;64.14453
80911;BME280;70359;51.420;7.032;2024-03-07T02:47:40;1009.646;;;7.11;64.13574
80911;BME280;70359;51.420;7.032;2024-03-07T02:50:05;1009.593;;;6.99;64.37695
80911;BME280;70359;51.420;7.032;2024-03-07T02:52:30;1009.597;;;7.04;64.26172
80911;BME280;70359;51.420;7.032;2024-03-07T02:54:55;1009.584;;;6.94;63.94434
80911;BME280;70359;51.420;7.032;2024-03-07T02:57:20;1009.572;;;6.98;63.71289
80911;BME280;70359;51.420;7.032;2024-03-07T02:59:45;1009.584;;;6.85;63.73926
80911;BME280;70359;51.420;7.032;2024-03-07T03:02:10;1009.558;;;6.8;64.21387
80911;BME280;70359;51.420;7.032;2024-03-07T03:04:35;1009.495;;;6.82;63.76855
80911;BME280;70359;51.420;7.032;2024-03-07T03:07:00;1009.471;;;6.72;63.73047
80911;BME280;70359;51.420;7.032;2024-03-07T03:09:25;1009.429;;;6.59;64.49609
80911;BME280;70359;51.420;7.032;2024-03-07T03:11:50;1009.401;;;6.47;64.52344
80911;BME280;70359;51.420;7.032;2024-03-07T03:14:15;1009.382;;;6.46;64.5
80911;BME280;70359;51.420;7.032;2024-03-07T03:16:40;1009.362;;;6.39;64.81348
80911;BME280;70359;51.420;7.032;2024-03-07T03:19:05;1009.358;;;6.41;64.22266
80911;BME280;70359;51.420;7.032;2024-03-07T03:21:30;1009.307;;;6.28;64.40625
80911;BME280;70359;51.420;7.032;2024-03-07T03:23:55;1009.259;;;6.33;64.73828
80911;BME280;70359;51.420;7.032;2024-03-07T03:26:20;1009.309;;;6.29;64.99902
80911;BME280;70359;51.420;7.032;2024-03-07T03:28:45;1009.295;;;6.04;66.07031
80911;BME280;70359;51.420;7.032;2024-03-07T03:31:10;1009.295;;;6.02;65.78711
80911;BME280;70359;51.420;7.032;2024-03-07T03:33:35;1009.337;;;6.07;65.26953
80911;BME280;70359;51.420;7.032;2024-03-07T03:36:00;1009.305;;;6.13;65.15527
80911;BME280;70359;51.420;7.032;2024-03-07T03:38:25;1009.341;;;6.1;65.00586
80911;BME280;70359;51.420;7.032;2024-03-07T03:40:50;1009.299;;;6.04;64.96387
80911;BME280;70359;51.420;7.032;2024-03-07T03:43:15;1009.267;;;6.05;64.84082
80911;BME280;70359;51.420;7.032;2024-03-07T03:45:40;1009.253;;;6.03;64.72754
80911;BME280;70359;51.420;7.032;2024-03-07T03:48:05;1009.25;;;6.09;64.79199
80911;BME280;70359;51.420;7.032;2024-03-07T03:50:30;1009.217;;;6.01;64.92383
80911;BME280;70359;51.420;7.032;2024-03-07T03:52:55;1009.203;;;5.96;65.30957
80911;BME280;70359;51.420;7.032;2024-03-07T03:55:20;1009.219;;;5.98;65.32227
80911;BME280;70359;51.420;7.032;2024-03-07T03:57:45;1009.211;;;5.98;65.48926
80911;BME280;70359;51.420;7.032;2024-03-07T04:00:10;1009.244;;;5.82;65.4668
80911;BME280;70359;51.420;7.032;2024-03-07T04:02:35;1009.28;;;5.76;66.19434
80911;BME280;70359;51.420;7.032;2024-03-07T04:05:00;1009.206;;;5.83;66.26074
80911;BME280;70359;51.420;7.032;2024-03-07T04:07:25;1009.181;;;5.95;65.69824
80911;BME280;70359;51.420;7.032;2024-03-07T04:09:50;1009.216;;;5.67;66.21387
80911;BME280;70359;51.420;7.032;2024-03-07T04:12:15;1009.173;;;5.69;66.41797
80911;BME280;70359;51.420;7.032;2024-03-07T04:14:40;1009.203;;;5.83;66.27246
80911;BME280;70359;51.420;7.032;2024-03-07T04:17:05;1009.15;;;5.95;64.96191
80911;BME280;70359;51.420;7.032;2024-03-07T04:19:30;1009.159;;;5.98;65.5791
80911;BME280;70359;51.420;7.032;2024-03-07T04:21:55;1009.145;;;6.06;65.05566
80911;BME280;70359;51.420;7.032;2024-03-07T04:24:20;1009.165;;;6.08;64.58887
80911;BME280;70359;51.420;7.032;2024-03-07T04:26:45;1009.162;;;5.86;65.28223
80911;BME280;70359;51.420;7.032;2024-03-07T04:29:10;1009.139;;;5.71;65.21582
80911;BME280;70359;51.420;7.032;2024-03-07T04:31:35;1009.15;;;5.78;65.10254
80911;BME280;70359;51.420;7.032;2024-03-07T04:34:00;1009.113;;;5.67;65.65527
80911;BME280;70359;51.420;7.032;2024-03-07T04:36:25;1009.137;;;5.5;65.80859
80911;BME280;70359;51.420;7.032;2024-03-07T04:38:50;1009.104;;;5.59;65.63379
80911;BME280;70359;51.420;7.032;2024-03-07T04:41:15;1009.115;;;5.64;65.76367
80911;BME280;70359;51.420;7.032;2024-03-07T04:43:40;1009.089;;;5.64;65.74121
80911;BME280;70359;51.420;7.032;2024-03-07T04:46:05;1009.054;;;5.76;65.05566
80911;BME280;70359;51.420;7.032;2024-03-07T04:48:30;1009.043;;;5.69;65.22266
80911;BME280;70359;51.420;7.032;2024-03-07T04:50:55;1009.09;;;5.77;65.29102
80911;BME280;70359;51.420;7.032;2024-03-07T04:53:20;1009.057;;;5.76;65.26758
80911;BME280;70359;51.420;7.032;2024-03-07T04:55:45;1009.006;;;5.89;64.71777
80911;BME280;70359;51.420;7.032;2024-03-07T04:58:10;1009.012;;;5.92;64.53125
80911;BME280;70359;51.420;7.032;2024-03-07T05:00:35;1009.007;;;5.71;64.75781
80911;BME280;70359;51.420;7.032;2024-03-07T05:03:00;1009.085;;;5.37;66.2041
80911;BME280;70359;51.420;7.032;2024-03-07T05:05:25;1009.078;;;5.45;65.76855
80911;BME280;70359;51.420;7.032;2024-03-07T05:07:50;1009.072;;;5.08;66.85938
80911;BME280;70359;51.420;7.032;2024-03-07T05:10:15;1009.09;;;5.24;66.72949
80911;BME280;70359;51.420;7.032;2024-03-07T05:12:40;1009.114;;;5.3;65.83398
80911;BME280;70359;51.420;7.032;2024-03-07T05:15:06;1009.15;;;5.18;65.76074
80911;BME280;70359;51.420;7.032;2024-03-07T05:17:30;1009.146;;;4.93;66.4248
80911;BME280;70359;51.420;7.032;2024-03-07T05:19:55;1009.11;;;5.13;65.85254
80911;BME280;70359;51.420;7.032;2024-03-07T05:22:20;1009.148;;;5.03;66.39453
80911;BME280;70359;51.420;7.032;2024-03-07T05:24:45;1009.132;;;5.24;65.29004
80911;BME280;70359;51.420;7.032;2024-03-07T05:27:10;1009.121;;;5.21;65.08398
80911;BME280;70359;51.420;7.032;2024-03-07T05:29:35;1009.125;;;5.23;65.09961
80911;BME280;70359;51.420;7.032;2024-03-07T05:32:18;1009.191;;;5.02;65.94824
80911;BME280;70359;51.420;7.032;2024-03-07T05:34:25;1009.183;;;5.08;64.94238
80911;BME280;70359;51.420;7.032;2024-03-07T05:36:50;1009.195;;;5.17;64.9668
80911;BME280;70359;51.420;7.032;2024-03-07T05:39:16;1009.185;;;5.07;65.18652
80911;BME280;70359;51.420;7.032;2024-03-07T05:41:40;1009.168;;;5.05;65.21582
80911;BME280;70359;51.420;7.032;2024-03-07T05:44:05;1009.129;;;5.07;65.08594
80911;BME280;70359;51.420;7.032;2024-03-07T05:46:30;1009.145;;;5.12;65.04785
80911;BME280;70359;51.420;7.032;2024-03-07T05:48:55;1009.146;;;5.22;64.41602
80911;BME280;70359;51.420;7.032;2024-03-07T05:51:20;1009.121;;;5.2;64.2793
80911;BME280;70359;51.420;7.032;2024-03-07T05:53:45;1009.161;;;5.35;63.6875
80911;BME280;70359;51.420;7.032;2024-03-07T05:56:10;1009.113;;;5.29;64.21484
80911;BME280;70359;51.420;7.032;2024-03-07T05:58:35;1009.115;;;5.37;63.49023
80911;BME280;70359;51.420;7.032;2024-03-07T06:01:00;1009.164;;;5.22;63.95801
80911;BME280;70359;51.420;7.032;2024-03-07T06:03:25;1009.129;;;5.28;63.65527
80911;BME280;70359;51.420;7.032;2024-03-07T06:05:50;1009.142;;;5.2;63.86621
80911;BME280;70359;51.420;7.032;2024-03-07T06:08:17;1009.172;;;5.14;64.12598
80911;BME280;70359;51.420;7.032;2024-03-07T06:10:40;1009.164;;;5.11;63.875
80911;BME280;70359;51.420;7.032;2024-03-07T06:13:05;1009.15;;;4.82;64.64648
80911;BME280;70359;51.420;7.032;2024-03-07T06:15:30;1009.144;;;4.87;65.2002
80911;BME280;70359;51.420;7.032;2024-03-07T06:17:55;1009.146;;;4.93;64.76465
80911;BME280;70359;51.420;7.032;2024-03-07T06:20:20;1009.175;;;5;64.2041
80911;BME280;70359;51.420;7.032;2024-03-07T06:22:45;1009.136;;;5;64.33887
80911;BME280;70359;51.420;7.032;2024-03-07T06:25:10;1009.165;;;4.93;64.61816
80911;BME280;70359;51.420;7.032;2024-03-07T06:27:35;1009.166;;;4.88;64.39844
80911;BME280;70359;51.420;7.032;2024-03-07T06:30:00;1009.157;;;4.85;64.56152
80911;BME280;70359;51.420;7.032;2024-03-07T06:32:25;1009.159;;;4.74;65.2373
80911;BME280;70359;51.420;7.032;2024-03-07T06:34:50;1009.177;;;4.84;64.61621
80911;BME280;70359;51.420;7.032;2024-03-07T06:37:15;1009.148;;;4.89;64.75781
80911;BME280;70359;51.420;7.032;2024-03-07T06:39:40;1009.18;;;4.79;64.58691
80911;BME280;70359;51.420;7.032;2024-03-07T06:42:05;1009.181;;;4.82;64.8252
80911;BME280;70359;51.420;7.032;2024-03-07T06:44:30;1009.165;;;4.81;64.55469
80911;BME280;70359;51.420;7.032;2024-03-07T06:46:55;1009.214;;;4.69;65.3291
80911;BME280;70359;51.420;7.032;2024-03-07T06:49:20;1009.218;;;4.76;64.99512
80911;BME280;70359;51.420;7.032;2024-03-07T06:51:45;1009.203;;;4.33;65.59766
80911;BME280;70359;51.420;7.032;2024-03-07T06:54:10;1009.191;;;4.31;66.36328
80911;BME280;70359;51.420;7.032;2024-03-07T06:56:35;1009.142;;;4.33;65.94238
80911;BME280;70359;51.420;7.032;2024-03-07T06:59:00;1009.187;;;4.17;66.47559
80911;BME280;70359;51.420;7.032;2024-03-07T07:01:25;1009.257;;;4.03;66.91016
80911;BME280;70359;51.420;7.032;2024-03-07T07:03:50;1009.221;;;3.94;67.35156
80911;BME280;70359;51.420;7.032;2024-03-07T07:06:15;1009.251;;;3.89;67.41113
80911;BME280;70359;51.420;7.032;2024-03-07T07:08:40;1009.253;;;4.03;67.45605
80911;BME280;70359;51.420;7.032;2024-03-07T07:11:05;1009.265;;;4.12;66.86816
80911;BME280;70359;51.420;7.032;2024-03-07T07:13:30;1009.284;;;4.24;66.66504
80911;BME280;70359;51.420;7.032;2024-03-07T07:15:55;1009.282;;;4.13;66.75781
80911;BME280;70359;51.420;7.032;2024-03-07T07:18:20;1009.317;;;4.31;66.08496
80911;BME280;70359;51.420;7.032;2024-03-07T07:20:45;1009.294;;;4.3;66.32813
80911;BME280;70359;51.420;7.032;2024-03-07T07:23:10;1009.354;;;4.46;65.90723
80911;BME280;70359;51.420;7.032;2024-03-07T07:25:35;1009.37;;;4.47;65.59668
80911;BME280;70359;51.420;7.032;2024-03-07T07:28:00;1009.36;;;4.66;65.10156
80911;BME280;70359;51.420;7.032;2024-03-07T07:30:25;1009.364;;;4.52;65.5166
80911;BME280;70359;51.420;7.032;2024-03-07T07:32:51;1009.361;;;4.69;65.10645
80911;BME280;70359;51.420;7.032;2024-03-07T07:35:15;1009.32;;;4.65;65.26758
80911;BME280;70359;51.420;7.032;2024-03-07T07:37:41;1009.328;;;4.14;66.19336
80911;BME280;70359;51.420;7.032;2024-03-07T07:40:06;1009.278;;;4.27;66.8916
80911;BME280;70359;51.420;7.032;2024-03-07T07:42:30;1009.229;;;4.4;66.05566
80911;BME280;70359;51.420;7.032;2024-03-07T07:44:55;1009.22;;;4.44;65.19043
80911;BME280;70359;51.420;7.032;2024-03-07T07:47:20;1009.204;;;4.41;65.36621
80911;BME280;70359;51.420;7.032;2024-03-07T07:49:45;1009.174;;;4.43;65.31348
80911;BME280;70359;51.420;7.032;2024-03-07T07:52:10;1009.201;;;4.46;65.57324
80911;BME280;70359;51.420;7.032;2024-03-07T07:54:35;1009.217;;;4.52;65.80566
80911;BME280;70359;51.420;7.032;2024-03-07T07:57:00;1009.197;;;4.01;67.28613
80911;BME280;70359;51.420;7.032;2024-03-07T07:59:25;1009.198;;;4.1;66.94336
80911;BME280;70359;51.420;7.032;2024-03-07T08:01:50;1009.18;;;4.14;66.56055
80911;BME280;70359;51.420;7.032;2024-03-07T08:04:15;1009.143;;;4.21;66.83594
80911;BME280;70359;51.420;7.032;2024-03-07T08:06:40;1009.175;;;4.16;66.89746
80911;BME280;70359;51.420;7.032;2024-03-07T08:09:05;1009.165;;;4.53;66.1416
80911;BME280;70359;51.420;7.032;2024-03-07T08:11:30;1009.148;;;4.53;65.70703
80911;BME280;70359;51.420;7.032;2024-03-07T08:13:55;1009.198;;;4.13;66.28027
80911;BME280;70359;51.420;7.032;2024-03-07T08:16:20;1009.187;;;4.26;67.29004
80911;BME280;70359;51.420;7.032;2024-03-07T08:18:45;1009.199;;;4.19;66.90137
80911;BME280;70359;51.420;7.032;2024-03-07T08:21:10;1009.169;;;4.13;67.64844
80911;BME280;70359;51.420;7.032;2024-03-07T08:23:35;1009.109;;;4.3;66.5625
80911;BME280;70359;51.420;7.032;2024-03-07T08:26:00;1009.119;;;4.54;65.35059
80911;BME280;70359;51.420;7.032;2024-03-07T08:28:25;1009.073;;;4.69;64.85059
80911;BME280;70359;51.420;7.032;2024-03-07T08:30:50;1009.059;;;4.53;64.93848
80911;BME280;70359;51.420;7.032;2024-03-07T08:33:15;1009.075;;;4.58;64.72363
80911;BME280;70359;51.420;7.032;2024-03-07T08:35:40;1009.07;;;4.85;64.79688
80911;BME280;70359;51.420;7.032;2024-03-07T08:38:05;1009.065;;;4.85;64.57324
80911;BME280;70359;51.420;7.032;2024-03-07T08:40:33;1009.045;;;4.87;64.04004
80911;BME280;70359;51.420;7.032;2024-03-07T08:42:56;1008.979;;;4.82;63.62109
80911;BME280;70359;51.420;7.032;2024-03-07T08:45:20;1008.931;;;4.95;63.56152
80911;BME280;70359;51.420;7.032;2024-03-07T08:47:46;1008.955;;;5.31;63.54688
80911;BME280;70359;51.420;7.032;2024-03-07T08:50:11;1008.907;;;5.45;62.57422
80911;BME280;70359;51.420;7.032;2024-03-07T08:52:35;1008.89;;;5.65;62.40137
80911;BME280;70359;51.420;7.032;2024-03-07T08:55:00;1008.851;;;5.91;61.09668
80911;BME280;70359;51.420;7.032;2024-03-07T08:57:25;1008.832;;;6.05;59.60352
80911;BME280;70359;51.420;7.032;2024-03-07T08:59:50;1008.813;;;6.17;58.72461
80911;BME280;70359;51.420;7.032;2024-03-07T09:02:16;1008.842;;;6.35;59.35449
80911;BME280;70359;51.420;7.032;2024-03-07T09:04:40;1008.95;;;6.34;59.2959
80911;BME280;70359;51.420;7.032;2024-03-07T09:07:06;1008.94;;;6.1;59.26367
80911;BME280;70359;51.420;7.032;2024-03-07T09:09:30;1008.883;;;6.1;58.68164
80911;BME280;70359;51.420;7.032;2024-03-07T09:11:55;1008.912;;;6.4;59.33789
80911;BME280;70359;51.420;7.032;2024-03-07T09:14:20;1008.891;;;6.47;59.02246
80911;BME280;70359;51.420;7.032;2024-03-07T09:16:46;1008.931;;;6.06;59.26855
80911;BME280;70359;51.420;7.032;2024-03-07T09:19:11;1008.993;;;6.26;58.6123
80911;BME280;70359;51.420;7.032;2024-03-07T09:21:36;1008.968;;;6.1;58.84961
80911;BME280;70359;51.420;7.032;2024-03-07T09:24:01;1008.914;;;6.47;58.62012
80911;BME280;70359;51.420;7.032;2024-03-07T09:26:26;1008.923;;;6.62;58.50488
80911;BME280;70359;51.420;7.032;2024-03-07T09:28:51;1008.938;;;6.63;58.60742
80911;BME280;70359;51.420;7.032;2024-03-07T09:31:18;1008.904;;;6.69;57.94238
80911;BME280;70359;51.420;7.032;2024-03-07T09:33:41;1008.941;;;6.86;57.8291
80911;BME280;70359;51.420;7.032;2024-03-07T09:36:06;1008.874;;;6.71;57.75391
80911;BME280;70359;51.420;7.032;2024-03-07T09:38:31;1008.873;;;6.72;58.0918
80911;BME280;70359;51.420;7.032;2024-03-07T09:40:56;1008.817;;;6.93;58.0625
80911;BME280;70359;51.420;7.032;2024-03-07T09:43:21;1008.772;;;6.68;57.2334
80911;BME280;70359;51.420;7.032;2024-03-07T09:45:46;1008.738;;;7.01;56.95117
80911;BME280;70359;51.420;7.032;2024-03-07T09:48:11;1008.729;;;6.99;55.15234
80911;BME280;70359;51.420;7.032;2024-03-07T09:50:36;1008.753;;;7.03;54.85352
80911;BME280;70359;51.420;7.032;2024-03-07T09:53:01;1008.723;;;6.82;54.01758
80911;BME280;70359;51.420;7.032;2024-03-07T09:55:26;1008.735;;;6.65;54.79199
80911;BME280;70359;51.420;7.032;2024-03-07T09:57:51;1008.727;;;6.84;54.26758
80911;BME280;70359;51.420;7.032;2024-03-07T10:00:16;1008.736;;;6.79;54.37305
80911;BME280;70359;51.420;7.032;2024-03-07T10:02:41;1008.701;;;6.83;53.6709
80911;BME280;70359;51.420;7.032;2024-03-07T10:05:06;1008.701;;;6.65;54.33301
80911;BME280;70359;51.420;7.032;2024-03-07T10:07:31;1008.701;;;6.52;54.38379
80911;BME280;70359;51.420;7.032;2024-03-07T10:09:56;1008.678;;;6.49;55.32324
80911;BME280;70359;51.420;7.032;2024-03-07T10:12:21;1008.67;;;6.75;54.77148
80911;BME280;70359;51.420;7.032;2024-03-07T10:14:54;1008.641;;;6.75;55.0752
80911;BME280;70359;51.420;7.032;2024-03-07T10:17:11;1008.627;;;6.89;54.75684
80911;BME280;70359;51.420;7.032;2024-03-07T10:19:36;1008.615;;;6.96;54.15918
80911;BME280;70359;51.420;7.032;2024-03-07T10:22:01;1008.633;;;6.39;54.72656
80911;BME280;70359;51.420;7.032;2024-03-07T10:24:27;1008.636;;;6.5;55.17969
80911;BME280;70359;51.420;7.032;2024-03-07T10:26:51;1008.625;;;6.56;55.47852
80911;BME280;70359;51.420;7.032;2024-03-07T10:29:16;1008.573;;;6.79;54.67676
80911;BME280;70359;51.420;7.032;2024-03-07T10:31:41;1008.532;;;6.38;54.40039
80911;BME280;70359;51.420;7.032;2024-03-07T10:34:06;1008.51;;;6.79;54.63086
80911;BME280;70359;51.420;7.032;2024-03-07T10:36:31;1008.477;;;6.56;55.11914
80911;BME280;70359;51.420;7.032;2024-03-07T10:38:56;1008.431;;;6.8;53.80176
80911;BME280;70359;51.420;7.032;2024-03-07T10:41:21;1008.416;;;6.71;54.72266
80911;BME280;70359;51.420;7.032;2024-03-07T10:43:46;1008.413;;;7.01;55.37695
80911;BME280;70359;51.420;7.032;2024-03-07T10:46:11;1008.406;;;7.31;54.57227
80911;BME280;70359;51.420;7.032;2024-03-07T10:48:38;1008.348;;;7.42;53.80957
80911;BME280;70359;51.420;7.032;2024-03-07T10:51:02;1008.373;;;7.71;53.53125
80911;BME280;70359;51.420;7.032;2024-03-07T10:53:29;1008.358;;;7.76;53.64941
80911;BME280;70359;51.420;7.032;2024-03-07T10:55:53;1008.345;;;7.9;52.87793
80911;BME280;70359;51.420;7.032;2024-03-07T10:58:19;1008.34;;;7.86;53.09766
80911;BME280;70359;51.420;7.032;2024-03-07T11:00:41;1008.324;;;7.94;52.51074
80911;BME280;70359;51.420;7.032;2024-03-07T11:03:06;1008.316;;;7.93;52.05859
80911;BME280;70359;51.420;7.032;2024-03-07T11:05:31;1008.259;;;7.91;52.3623
80911;BME280;70359;51.420;7.032;2024-03-07T11:07:56;1008.262;;;7.91;52.91309
80911;BME280;70359;51.420;7.032;2024-03-07T11:10:21;1008.208;;;7.8;52.72949
80911;BME280;70359;51.420;7.032;2024-03-07T11:12:46;1008.174;;;7.81;53.03613
80911;BME280;70359;51.420;7.032;2024-03-07T11:15:11;1008.086;;;7.77;52.61426
80911;BME280;70359;51.420;7.032;2024-03-07T11:17:36;1008.033;;;7.82;53.13867
80911;BME280;70359;51.420;7.032;2024-03-07T11:22:31;1007.999;;;7.98;52.09766
80911;BME280;70359;51.420;7.032;2024-03-07T11:27:16;1008.005;;;7.81;53.87012
80911;BME280;70359;51.420;7.032;2024-03-07T11:29:47;1008.022;;;7.61;54.42969
80911;BME280;70359;51.420;7.032;2024-03-07T11:32:06;1007.987;;;7.96;54.26074
80911;BME280;70359;51.420;7.032;2024-03-07T11:34:33;1007.919;;;7.87;53.73145
80911;BME280;70359;51.420;7.032;2024-03-07T11:36:56;1007.835;;;8;53.54395
80911;BME280;70359;51.420;7.032;2024-03-07T11:41:46;1007.84;;;8.15;53.28125
80911;BME280;70359;51.420;7.032;2024-03-07T11:44:11;1007.756;;;8.22;53.75195
80911;BME280;70359;51.420;7.032;2024-03-07T11:46:36;1007.712;;;8.27;53.02441
80911;BME280;70359;51.420;7.032;2024-03-07T11:49:01;1007.758;;;8.29;53.74707
80911;BME280;70359;51.420;7.032;2024-03-07T11:51:26;1007.743;;;8.13;52.97363
80911;BME280;70359;51.420;7.032;2024-03-07T11:53:51;1007.644;;;8.19;53.74805
80911;BME280;70359;51.420;7.032;2024-03-07T11:56:16;1007.577;;;8.43;53.63086
80911;BME280;70359;51.420;7.032;2024-03-07T11:58:41;1007.579;;;8.44;53.38281
80911;BME280;70359;51.420;7.032;2024-03-07T12:01:06;1007.553;;;7.95;53.9541
80911;BME280;70359;51.420;7.032;2024-03-07T12:03:31;1007.521;;;8.32;53.60645
80911;BME280;70359;51.420;7.032;2024-03-07T12:05:56;1007.535;;;7.66;54.7627
80911;BME280;70359;51.420;7.032;2024-03-07T12:08:22;1007.503;;;7.79;55.00488
80911;BME280;70359;51.420;7.032;2024-03-07T12:10:46;1007.452;;;8.13;53.86523
80911;BME280;70359;51.420;7.032;2024-03-07T12:13:11;1007.499;;;8.02;53.38867
80911;BME280;70359;51.420;7.032;2024-03-07T12:15:36;1007.434;;;8;53.44238
80911;BME280;70359;51.420;7.032;2024-03-07T12:18:01;1007.38;;;8.17;53.35059
80911;BME280;70359;51.420;7.032;2024-03-07T12:20:26;1007.344;;;8.09;54.01758
80911;BME280;70359;51.420;7.032;2024-03-07T12:22:51;1007.325;;;8.08;53.60938
80911;BME280;70359;51.420;7.032;2024-03-07T12:25:17;1007.244;;;8.22;54.25977
80911;BME280;70359;51.420;7.032;2024-03-07T12:27:41;1007.258;;;8.18;54.24219
80911;BME280;70359;51.420;7.032;2024-03-07T12:30:14;1007.157;;;8.31;53.96484
80911;BME280;70359;51.420;7.032;2024-03-07T12:32:31;1007.196;;;8.36;54.10742
80911;BME280;70359;51.420;7.032;2024-03-07T12:34:56;1007.116;;;8.38;53.77051
80911;BME280;70359;51.420;7.032;2024-03-07T12:37:21;1007.146;;;8.56;53.51074